CheckWX is a tool to help pilots better visualize weather data.  It is not intended as a substitute for an official pre-flight weather briefing.

05:50:07 UTC

HTTB TAF
Tabora Airport
Tabora, Tanzania
HTTB 172300Z 1800/1824 27005KT 9999 SCT017 FEW018CB BKN070

Nov-18@
00:00 UTC

Nov-18 @ 00:00 UTC

Nov-19@
00:00 UTC

Nov-19 @ 00:00 UTC

HTTB 172300Z 1800/1824 27005KT 9999 SCT017 FEW018CB BKN070
Wind
  • 270° at 5 KTS
Cloud Levels
  • Scattered at 1,700' AGL
  • Few at 1,800' AGL
  • Broken at 7,000' AGL